createdAt,value
2022-08-28T00:00:00.614Z,17.90
2022-08-28T00:03:05.708Z,17.80
2022-08-28T00:06:11.565Z,17.80
2022-08-28T00:09:16.205Z,17.80
2022-08-28T00:12:20.576Z,17.80
2022-08-28T00:15:31.581Z,17.80
2022-08-28T00:18:36.188Z,17.80
2022-08-28T00:21:40.572Z,17.70
2022-08-28T00:24:45.778Z,17.80
2022-08-28T00:27:52.559Z,17.80
2022-08-28T00:30:59.216Z,17.70
2022-08-28T00:34:04.243Z,17.70
2022-08-28T00:37:08.575Z,17.70
2022-08-28T00:40:19.936Z,17.70
2022-08-28T00:43:45.305Z,17.70
2022-08-28T00:46:52.418Z,17.70
2022-08-28T00:49:57.403Z,17.70
2022-08-28T00:53:01.740Z,17.70
2022-08-28T00:56:13.345Z,17.70
2022-08-28T00:59:20.590Z,17.70
2022-08-28T01:02:26.554Z,17.80
2022-08-28T01:05:31.420Z,17.80
2022-08-28T01:08:38.867Z,17.80
2022-08-28T01:11:46.557Z,17.90
2022-08-28T01:14:55.087Z,17.90
2022-08-28T01:18:07.884Z,17.90
2022-08-28T01:21:29.964Z,17.90
2022-08-28T01:24:35.692Z,17.90
2022-08-28T01:27:42.052Z,17.90
2022-08-28T01:30:48.482Z,18.00
2022-08-28T01:33:52.864Z,18.00
2022-08-28T01:36:58.584Z,18.00
2022-08-28T01:40:10.026Z,18.00
2022-08-28T01:43:20.691Z,18.00
2022-08-28T01:46:25.031Z,18.00
2022-08-28T01:49:29.519Z,18.00
2022-08-28T01:52:34.066Z,18.00
2022-08-28T01:55:38.649Z,18.10
2022-08-28T01:58:44.083Z,18.10
2022-08-28T02:01:48.761Z,18.10
2022-08-28T02:04:53.855Z,18.10
2022-08-28T02:08:00.419Z,18.20
2022-08-28T02:11:07.400Z,18.20
2022-08-28T02:14:12.132Z,18.30
2022-08-28T02:17:16.653Z,18.30
2022-08-28T02:20:22.414Z,18.30
2022-08-28T02:23:26.826Z,18.30
2022-08-28T02:26:31.917Z,18.40
2022-08-28T02:29:36.491Z,18.40
2022-08-28T02:32:41.319Z,18.40
2022-08-28T02:35:46.047Z,18.40
2022-08-28T02:38:57.529Z,18.40
2022-08-28T02:42:02.999Z,18.40
2022-08-28T02:45:10.732Z,18.50
2022-08-28T02:48:17.122Z,18.60
2022-08-28T02:51:22.837Z,18.60
2022-08-28T02:54:27.123Z,18.60
2022-08-28T02:57:31.896Z,18.60
2022-08-28T03:00:36.638Z,18.60
2022-08-28T03:03:42.380Z,18.70
2022-08-28T03:06:46.907Z,18.70
2022-08-28T03:09:51.499Z,18.70
2022-08-28T03:12:55.725Z,18.70
2022-08-28T03:16:00.341Z,18.70
2022-08-28T03:19:04.433Z,18.70
2022-08-28T03:22:09.354Z,18.70
2022-08-28T03:25:13.775Z,18.70
2022-08-28T03:28:18.081Z,18.70
2022-08-28T03:31:25.062Z,18.70
2022-08-28T03:34:29.515Z,18.70
2022-08-28T03:37:34.065Z,18.70
2022-08-28T03:40:40.778Z,18.70
2022-08-28T03:43:45.668Z,18.70
2022-08-28T03:46:50.929Z,18.70
2022-08-28T03:49:57.523Z,18.70
2022-08-28T03:53:01.991Z,18.60
2022-08-28T03:56:08.177Z,18.60
2022-08-28T03:59:12.843Z,18.60
2022-08-28T04:02:19.351Z,18.50
2022-08-28T04:05:23.882Z,18.50
2022-08-28T04:08:29.518Z,18.50
2022-08-28T04:11:37.694Z,18.50
2022-08-28T04:14:42.373Z,18.50
2022-08-28T04:17:47.088Z,18.40
2022-08-28T04:21:03.685Z,18.40
2022-08-28T04:24:09.795Z,18.40
2022-08-28T04:27:14.964Z,18.40
2022-08-28T04:30:20.739Z,18.50
2022-08-28T04:33:27.184Z,18.50
2022-08-28T04:36:33.700Z,18.50
2022-08-28T04:39:38.404Z,18.50
2022-08-28T04:42:44.947Z,18.50
2022-08-28T04:45:49.904Z,18.50
2022-08-28T04:48:55.532Z,18.50
2022-08-28T04:52:00.051Z,18.50
2022-08-28T04:55:04.771Z,18.60
2022-08-28T04:58:10.068Z,18.60
2022-08-28T05:01:21.039Z,18.60
2022-08-28T05:04:26.910Z,18.70
2022-08-28T05:07:31.326Z,18.70
2022-08-28T05:10:35.578Z,18.80
2022-08-28T05:13:40.475Z,18.80
2022-08-28T05:16:48.358Z,18.70
2022-08-28T05:19:54.228Z,18.80
2022-08-28T05:22:58.750Z,18.80
2022-08-28T05:26:03.346Z,18.90
2022-08-28T05:29:09.917Z,18.90
2022-08-28T05:32:14.279Z,19.00
2022-08-28T05:35:18.522Z,19.10
2022-08-28T05:38:23.744Z,19.00
2022-08-28T05:41:30.761Z,19.00
2022-08-28T05:44:35.469Z,19.00
2022-08-28T05:47:39.978Z,19.10
2022-08-28T05:50:47.529Z,19.20
2022-08-28T05:53:54.013Z,19.20
2022-08-28T05:56:58.385Z,19.20
2022-08-28T06:00:04.765Z,19.10
2022-08-28T06:03:09.904Z,19.10
2022-08-28T06:06:14.395Z,19.20
2022-08-28T06:09:20.356Z,19.20
2022-08-28T06:12:24.807Z,19.20
2022-08-28T06:15:28.952Z,19.20
2022-08-28T06:18:33.548Z,19.10
2022-08-28T06:21:43.155Z,19.20
2022-08-28T06:24:47.732Z,19.20
2022-08-28T06:27:52.241Z,19.30
2022-08-28T06:31:18.510Z,19.30
2022-08-28T06:34:22.186Z,19.20
2022-08-28T06:37:26.747Z,19.20
2022-08-28T06:40:31.876Z,19.20
2022-08-28T06:43:36.556Z,19.20
2022-08-28T06:46:41.660Z,19.40
2022-08-28T06:49:46.371Z,19.50
2022-08-28T06:52:50.943Z,19.40
2022-08-28T06:56:08.810Z,19.40
2022-08-28T06:59:13.477Z,19.40
2022-08-28T07:02:18.149Z,19.60
2022-08-28T07:05:23.246Z,19.50
2022-08-28T07:08:28.749Z,19.50
2022-08-28T07:11:35.505Z,19.40
2022-08-28T07:14:40.181Z,19.30
2022-08-28T07:17:45.481Z,19.40
2022-08-28T07:20:57.481Z,19.50
2022-08-28T07:24:03.891Z,19.80
2022-08-28T07:27:09.094Z,20.00
2022-08-28T07:30:13.775Z,20.30
2022-08-28T07:33:18.349Z,20.30
2022-08-28T07:36:28.820Z,20.60
2022-08-28T07:39:34.712Z,20.40
2022-08-28T07:42:57.840Z,20.20
2022-08-28T07:46:07.080Z,20.00
2022-08-28T07:49:13.072Z,20.50
2022-08-28T07:52:17.687Z,20.70
2022-08-28T07:55:22.472Z,20.40
2022-08-28T07:58:27.068Z,20.60
2022-08-28T08:01:35.870Z,20.60
2022-08-28T08:04:40.604Z,20.40
2022-08-28T08:07:45.974Z,21.00
2022-08-28T08:11:01.117Z,21.60
2022-08-28T08:14:07.402Z,21.00
2022-08-28T08:17:12.162Z,21.00
2022-08-28T08:20:16.541Z,21.70
2022-08-28T08:23:21.885Z,22.50
2022-08-28T08:26:30.545Z,22.70
2022-08-28T08:29:37.168Z,22.50
2022-08-28T08:32:41.629Z,22.70
2022-08-28T08:35:46.098Z,23.20
2022-08-28T08:38:59.243Z,23.20
2022-08-28T08:42:08.023Z,22.70
2022-08-28T08:45:17.338Z,22.80
2022-08-28T08:48:29.256Z,22.40
2022-08-28T08:51:47.895Z,22.20
2022-08-28T08:55:28.373Z,22.00
2022-08-28T08:58:42.151Z,22.30
2022-08-28T09:02:12.698Z,23.30
2022-08-28T09:05:22.080Z,23.30
2022-08-28T09:08:40.911Z,23.30
2022-08-28T09:11:58.686Z,23.20
2022-08-28T09:15:17.311Z,23.40
2022-08-28T09:18:32.195Z,23.10
2022-08-28T09:21:42.615Z,23.20
2022-08-28T09:24:47.435Z,23.50
2022-08-28T09:27:54.938Z,23.40
2022-08-28T09:31:16.157Z,24.00
2022-08-28T09:34:30.133Z,23.50
2022-08-28T09:37:36.628Z,23.10
2022-08-28T09:40:59.867Z,23.00
2022-08-28T09:44:04.257Z,23.20
2022-08-28T09:47:08.515Z,23.20
2022-08-28T09:50:36.539Z,23.10
2022-08-28T09:54:02.211Z,23.10
2022-08-28T09:57:07.547Z,23.10
2022-08-28T10:00:12.291Z,23.30
2022-08-28T10:03:29.475Z,23.30
2022-08-28T10:06:37.059Z,24.00
2022-08-28T10:09:46.766Z,23.80
2022-08-28T10:13:23.765Z,23.30
2022-08-28T10:16:41.524Z,23.20
2022-08-28T10:20:43.154Z,23.10
2022-08-28T10:24:05.982Z,23.50
2022-08-28T10:27:34.679Z,22.70
2022-08-28T10:31:07.493Z,22.60
2022-08-28T10:34:24.267Z,23.80
2022-08-28T10:38:09.827Z,23.80
2022-08-28T10:41:24.135Z,23.90
2022-08-28T10:44:55.198Z,24.60
2022-08-28T10:48:09.125Z,23.90
2022-08-28T10:52:05.581Z,23.10
2022-08-28T10:55:20.535Z,22.50
2022-08-28T10:58:27.436Z,22.20
2022-08-28T11:01:36.612Z,22.00
2022-08-28T11:04:41.240Z,22.00
2022-08-28T11:07:50.683Z,22.20
2022-08-28T11:10:58.223Z,23.20
2022-08-28T11:14:03.910Z,23.10
2022-08-28T11:17:14.358Z,23.20
2022-08-28T11:20:25.462Z,23.00
2022-08-28T11:23:48.931Z,22.30
2022-08-28T11:27:19.321Z,22.30
2022-08-28T11:30:32.839Z,22.00
2022-08-28T11:33:42.599Z,21.90
2022-08-28T11:36:47.298Z,21.70
2022-08-28T11:39:52.090Z,23.00
2022-08-28T11:43:16.210Z,23.20
2022-08-28T11:46:33.088Z,23.20
2022-08-28T11:49:40.714Z,22.60
2022-08-28T11:53:06.630Z,22.60
2022-08-28T11:56:38.848Z,23.30
2022-08-28T12:00:12.180Z,22.60
2022-08-28T12:03:34.055Z,23.10
2022-08-28T12:06:47.102Z,23.10
2022-08-28T12:09:52.781Z,23.00
2022-08-28T12:13:01.560Z,22.40
2022-08-28T12:16:07.556Z,22.30
2022-08-28T12:19:55.230Z,22.10
2022-08-28T12:23:23.466Z,22.10
2022-08-28T12:26:38.878Z,22.10
2022-08-28T12:29:52.761Z,22.40
2022-08-28T12:33:08.681Z,22.60
2022-08-28T12:36:16.773Z,22.20
2022-08-28T12:39:22.833Z,21.70
2022-08-28T12:42:32.166Z,22.00
2022-08-28T12:45:39.447Z,21.90
2022-08-28T12:48:56.874Z,21.70
2022-08-28T12:52:17.948Z,22.20
2022-08-28T12:55:24.563Z,22.00
2022-08-28T12:58:35.264Z,21.50
2022-08-28T13:01:41.493Z,21.80
2022-08-28T13:05:03.718Z,21.40
2022-08-28T13:08:11.648Z,21.60
2022-08-28T13:11:20.072Z,21.50
2022-08-28T13:14:43.167Z,21.60
2022-08-28T13:17:54.918Z,21.80
2022-08-28T13:21:32.444Z,22.40
2022-08-28T13:24:42.516Z,22.80
2022-08-28T13:28:03.081Z,22.70
2022-08-28T13:31:43.413Z,24.10
2022-08-28T13:35:16.761Z,25.10
2022-08-28T13:38:23.165Z,25.80
2022-08-28T13:41:29.802Z,26.00
2022-08-28T13:44:40.622Z,26.30
2022-08-28T13:47:45.233Z,25.70
2022-08-28T13:50:54.367Z,25.70
2022-08-28T13:53:58.904Z,26.30
2022-08-28T13:57:07.101Z,24.30
2022-08-28T14:00:13.098Z,23.80
2022-08-28T14:03:35.682Z,23.80
2022-08-28T14:06:44.415Z,24.40
2022-08-28T14:09:51.825Z,23.60
2022-08-28T14:13:00.367Z,24.90
2022-08-28T14:16:07.232Z,25.40
2022-08-28T14:19:12.800Z,25.80
2022-08-28T14:22:17.576Z,25.50
2022-08-28T14:25:22.171Z,25.70
2022-08-28T14:28:26.442Z,25.90
2022-08-28T14:31:31.276Z,26.60
2022-08-28T14:34:35.758Z,26.50
2022-08-28T14:37:41.835Z,26.00
2022-08-28T14:40:46.787Z,25.50
2022-08-28T14:43:52.489Z,24.60
2022-08-28T14:46:57.462Z,23.60
2022-08-28T14:50:01.881Z,22.90
2022-08-28T14:53:06.341Z,22.50
2022-08-28T14:56:11.060Z,22.20
2022-08-28T14:59:23.857Z,22.30
2022-08-28T15:02:28.748Z,22.40
2022-08-28T15:05:34.063Z,24.40
2022-08-28T15:08:39.676Z,24.50
2022-08-28T15:11:44.775Z,23.70
2022-08-28T15:14:57.098Z,23.60
2022-08-28T15:18:01.906Z,24.30
2022-08-28T15:21:08.234Z,25.00
2022-08-28T15:24:15.470Z,24.00
2022-08-28T15:27:19.972Z,23.10
2022-08-28T15:30:24.581Z,22.80
2022-08-28T15:33:28.895Z,22.40
2022-08-28T15:36:34.587Z,22.30
2022-08-28T15:39:58.069Z,22.10
2022-08-28T15:43:02.556Z,22.00
2022-08-28T15:46:13.584Z,21.80
2022-08-28T15:49:20.316Z,21.50
2022-08-28T15:52:28.197Z,21.40
2022-08-28T15:55:32.963Z,21.40
2022-08-28T15:58:38.711Z,22.00
2022-08-28T16:01:43.752Z,22.20
2022-08-28T16:04:48.748Z,22.00
2022-08-28T16:07:53.260Z,22.00
2022-08-28T16:10:57.806Z,21.80
2022-08-28T16:14:04.569Z,21.40
2022-08-28T16:17:10.761Z,21.60
2022-08-28T16:20:15.703Z,21.50
2022-08-28T16:23:20.133Z,21.10
2022-08-28T16:26:25.210Z,20.80
2022-08-28T16:29:29.725Z,20.70
2022-08-28T16:32:34.121Z,20.50
2022-08-28T16:35:56.919Z,20.40
2022-08-28T16:39:03.709Z,20.40
2022-08-28T16:42:08.812Z,20.30
2022-08-28T16:45:13.451Z,20.30
2022-08-28T16:48:17.926Z,20.30
2022-08-28T16:51:26.797Z,20.20
2022-08-28T16:54:31.089Z,20.00
2022-08-28T16:57:35.887Z,20.00
2022-08-28T17:00:52.385Z,19.80
2022-08-28T17:03:59.166Z,19.80
2022-08-28T17:07:04.288Z,19.70
2022-08-28T17:10:12.121Z,19.70
2022-08-28T17:13:16.699Z,19.60
2022-08-28T17:16:23.318Z,19.60
2022-08-28T17:19:28.400Z,19.60
2022-08-28T17:22:32.892Z,19.60
2022-08-28T17:25:37.555Z,19.60
2022-08-28T17:28:42.782Z,19.60
2022-08-28T17:31:47.485Z,19.60
2022-08-28T17:34:51.522Z,19.60
2022-08-28T17:37:56.992Z,19.60
2022-08-28T17:41:06.219Z,19.50
2022-08-28T17:44:12.404Z,19.50
2022-08-28T17:47:16.854Z,19.50
2022-08-28T17:50:23.665Z,19.40
2022-08-28T17:53:29.166Z,19.40
2022-08-28T17:56:36.107Z,19.30
2022-08-28T17:59:40.623Z,19.30
2022-08-28T18:02:46.246Z,19.20
2022-08-28T18:05:51.384Z,19.20
2022-08-28T18:08:56.390Z,19.10
2022-08-28T18:12:01.583Z,19.10
2022-08-28T18:15:09.842Z,19.20
2022-08-28T18:18:14.830Z,19.10
2022-08-28T18:21:20.154Z,19.10
2022-08-28T18:24:25.572Z,19.10
2022-08-28T18:27:33.646Z,19.20
2022-08-28T18:30:38.305Z,19.10
2022-08-28T18:33:43.234Z,19.10
2022-08-28T18:36:48.387Z,19.10
2022-08-28T18:39:53.023Z,19.10
2022-08-28T18:42:59.481Z,19.10
2022-08-28T18:46:05.947Z,19.10
2022-08-28T18:49:11.490Z,19.10
2022-08-28T18:52:16.268Z,19.10
2022-08-28T18:55:22.247Z,19.20
2022-08-28T18:58:28.360Z,19.20
2022-08-28T19:01:32.870Z,19.20
2022-08-28T19:04:37.939Z,19.20
2022-08-28T19:07:42.801Z,19.20
2022-08-28T19:10:47.715Z,19.20
2022-08-28T19:13:52.324Z,19.20
2022-08-28T19:16:57.292Z,19.10
2022-08-28T19:20:04.029Z,19.00
2022-08-28T19:23:08.710Z,19.00
2022-08-28T19:26:13.682Z,19.00
2022-08-28T19:29:19.056Z,19.00
2022-08-28T19:32:27.086Z,19.00
2022-08-28T19:35:33.616Z,19.00
2022-08-28T19:38:38.316Z,19.00
2022-08-28T19:41:43.647Z,19.00
2022-08-28T19:44:51.792Z,19.00
2022-08-28T19:48:04.580Z,19.00
2022-08-28T19:51:17.332Z,18.90
2022-08-28T19:54:22.142Z,19.00
2022-08-28T19:57:26.879Z,19.00
2022-08-28T20:00:33.045Z,19.00
2022-08-28T20:03:39.449Z,18.90
2022-08-28T20:06:45.710Z,18.90
2022-08-28T20:09:50.117Z,18.90
2022-08-28T20:12:54.545Z,18.90
2022-08-28T20:16:03.898Z,18.80
2022-08-28T20:19:10.556Z,18.80
2022-08-28T20:22:15.523Z,18.80
2022-08-28T20:25:20.131Z,18.80
2022-08-28T20:28:24.632Z,18.80
2022-08-28T20:31:29.142Z,18.90
2022-08-28T20:34:33.582Z,18.90
2022-08-28T20:37:44.777Z,18.90
2022-08-28T20:40:50.253Z,18.90
2022-08-28T20:43:54.777Z,18.80
2022-08-28T20:46:59.183Z,18.80
2022-08-28T20:50:05.675Z,18.70
2022-08-28T20:53:10.403Z,18.70
2022-08-28T20:56:14.683Z,18.70
2022-08-28T20:59:20.679Z,18.70
2022-08-28T21:02:27.534Z,18.70
2022-08-28T21:05:32.319Z,18.70
2022-08-28T21:08:36.506Z,18.70
2022-08-28T21:11:42.411Z,18.70
2022-08-28T21:14:51.748Z,18.70
2022-08-28T21:17:56.430Z,18.70
2022-08-28T21:21:04.847Z,18.70
2022-08-28T21:24:12.354Z,18.70
2022-08-28T21:27:18.563Z,18.70
2022-08-28T21:30:23.656Z,18.60
2022-08-28T21:33:33.972Z,18.60
2022-08-28T21:36:48.125Z,18.60
2022-08-28T21:39:56.501Z,18.50
2022-08-28T21:43:01.138Z,18.50
2022-08-28T21:46:06.965Z,18.40
2022-08-28T21:49:11.872Z,18.40
2022-08-28T21:52:18.311Z,18.30
2022-08-28T21:55:23.138Z,18.30
2022-08-28T21:58:27.615Z,18.30
2022-08-28T22:01:32.442Z,18.30
2022-08-28T22:04:36.718Z,18.20
2022-08-28T22:07:41.651Z,18.20
2022-08-28T22:10:47.048Z,18.20
2022-08-28T22:13:53.042Z,18.10
2022-08-28T22:16:57.767Z,18.10
2022-08-28T22:20:03.008Z,18.10
2022-08-28T22:23:10.298Z,18.10
2022-08-28T22:26:20.296Z,18.10
2022-08-28T22:29:25.495Z,18.10
2022-08-28T22:32:30.242Z,18.20
2022-08-28T22:35:34.604Z,18.20
2022-08-28T22:38:39.904Z,18.10
2022-08-28T22:41:44.826Z,18.10
2022-08-28T22:44:49.174Z,18.10
2022-08-28T22:47:54.022Z,18.10
2022-08-28T22:51:05.903Z,18.10
2022-08-28T22:54:10.456Z,18.20
2022-08-28T22:57:14.646Z,18.20
2022-08-28T23:00:23.908Z,18.20
2022-08-28T23:03:28.864Z,18.20
2022-08-28T23:06:33.222Z,18.20
2022-08-28T23:09:38.097Z,18.20
2022-08-28T23:12:43.258Z,18.20
2022-08-28T23:15:48.797Z,18.20
2022-08-28T23:19:08.643Z,18.20
2022-08-28T23:22:15.345Z,18.20
2022-08-28T23:25:22.266Z,18.20
2022-08-28T23:28:26.528Z,18.20
2022-08-28T23:31:30.788Z,18.10
2022-08-28T23:34:36.703Z,18.10
2022-08-28T23:37:46.692Z,18.20
2022-08-28T23:40:53.203Z,18.10
2022-08-28T23:43:57.923Z,18.10
2022-08-28T23:47:02.699Z,18.10
2022-08-28T23:50:07.808Z,18.10
2022-08-28T23:53:12.453Z,18.10
2022-08-28T23:56:17.032Z,18.10
2022-08-28T23:59:21.689Z,18.20
